Time;durP1;ratioP1;P1;durP2;ratioP2;P2;SDS_P1;SDS_P2;PMS_P1;PMS_P2;Temp;Humidity;BMP_temperature;BMP_pressure;BME280_temperature;BME280_humidity;BME280_pressure;Samples;Min_cycle;Max_cycle;Signal;HPM_P1;HPM_P2
2021/03/05 00:01:41;;;;;;;21.13;10.73;;;13.40;40.80;;;;;;5026594;28;20048;-62
2021/03/05 00:04:07;;;;;;;20.00;10.38;;;13.50;40.70;;;;;;5032210;28;20455;-65
2021/03/05 00:06:32;;;;;;;23.15;10.40;;;13.40;40.70;;;;;;5057719;28;20494;-63
2021/03/05 00:08:58;;;;;;;22.45;10.60;;;13.40;40.40;;;;;;5067997;28;20028;-63
2021/03/05 00:11:24;;;;;;;18.00;10.02;;;13.40;40.40;;;;;;5068741;28;20056;-62
2021/03/05 00:13:49;;;;;;;22.23;10.45;;;13.40;40.40;;;;;;5072073;28;20021;-62
2021/03/05 00:16:15;;;;;;;23.02;11.10;;;13.40;40.30;;;;;;5072697;28;20028;-62
2021/03/05 00:18:41;;;;;;;17.77;9.85;;;13.40;40.30;;;;;;5068772;28;20020;-62
2021/03/05 00:21:07;;;;;;;16.15;9.23;;;13.40;40.20;;;;;;5071853;28;20028;-63
2021/03/05 00:23:32;;;;;;;17.13;9.77;;;13.50;40.20;;;;;;5071443;28;20753;-63
2021/03/05 00:25:58;;;;;;;23.35;10.55;;;13.50;40.10;;;;;;5052393;28;20033;-62
2021/03/05 00:28:23;;;;;;;24.17;9.93;;;13.50;39.90;;;;;;5071022;28;20470;-62
2021/03/05 00:30:49;;;;;;;19.63;10.77;;;13.50;39.90;;;;;;5071887;28;20379;-61
2021/03/05 00:33:15;;;;;;;19.50;10.15;;;13.60;39.80;;;;;;5071140;28;20025;-62
2021/03/05 00:35:40;;;;;;;20.92;10.23;;;13.60;39.70;;;;;;5071961;28;20056;-64
2021/03/05 00:38:06;;;;;;;21.23;9.45;;;13.60;39.60;;;;;;5058711;28;20038;-62
2021/03/05 00:40:32;;;;;;;17.02;10.02;;;13.70;40.10;;;;;;5068301;28;20413;-63
2021/03/05 00:42:57;;;;;;;19.75;9.82;;;13.60;40.20;;;;;;5070910;28;20028;-63
2021/03/05 00:45:24;;;;;;;16.83;8.90;;;13.60;40.10;;;;;;5070801;28;20167;-62
2021/03/05 00:47:50;;;;;;;27.60;10.00;;;13.70;40.10;;;;;;5070651;28;20040;-61
2021/03/05 00:50:17;;;;;;;20.38;10.00;;;13.70;40.60;;;;;;5071727;28;20420;-62
2021/03/05 00:52:44;;;;;;;19.70;9.23;;;13.70;41.00;;;;;;5071301;28;20469;-62
2021/03/05 00:55:11;;;;;;;23.27;9.23;;;13.70;41.20;;;;;;5048216;28;20055;-62
2021/03/05 00:57:37;;;;;;;18.27;9.07;;;13.80;41.20;;;;;;5070894;28;21181;-62
2021/03/05 01:00:09;;;;;;;16.98;9.18;;;13.80;41.40;;;;;;5072547;28;20505;-62
2021/03/05 01:02:35;;;;;;;23.98;9.77;;;13.80;41.30;;;;;;5063070;28;20025;-62
2021/03/05 01:05:01;;;;;;;20.63;8.88;;;13.80;41.80;;;;;;5066797;28;20126;-63
2021/03/05 01:07:27;;;;;;;19.90;9.20;;;13.80;41.70;;;;;;5063437;28;20033;-63
2021/03/05 01:09:53;;;;;;;16.00;9.30;;;13.80;42.10;;;;;;5051747;28;20027;-62
2021/03/05 01:12:20;;;;;;;27.55;9.02;;;13.90;41.80;;;;;;5062861;28;20047;-62
2021/03/05 01:14:46;;;;;;;23.90;8.65;;;13.80;42.00;;;;;;5066995;28;20055;-62
2021/03/05 01:17:12;;;;;;;24.33;8.45;;;13.90;42.10;;;;;;5068681;28;20462;-63
2021/03/05 01:19:38;;;;;;;19.83;8.45;;;13.80;43.00;;;;;;5046630;28;20017;-62
2021/03/05 01:22:04;;;;;;;22.27;9.27;;;13.90;42.60;;;;;;5071179;28;20035;-62
2021/03/05 01:24:30;;;;;;;24.00;9.07;;;13.90;42.70;;;;;;5065041;28;20390;-62
2021/03/05 01:26:55;;;;;;;22.38;8.48;;;13.90;43.10;;;;;;5070871;28;20526;-62
2021/03/05 01:29:21;;;;;;;27.02;9.13;;;14.10;43.20;;;;;;5053941;28;20154;-62
2021/03/05 01:31:47;;;;;;;27.50;9.20;;;14.00;44.00;;;;;;5065930;28;20138;-62
2021/03/05 01:34:13;;;;;;;24.25;9.10;;;14.00;44.30;;;;;;5071517;28;20027;-62
2021/03/05 01:36:39;;;;;;;25.70;9.45;;;14.00;44.60;;;;;;5071906;28;20044;-62
2021/03/05 01:39:05;;;;;;;23.27;9.00;;;14.00;44.90;;;;;;5071541;28;20020;-62
2021/03/05 01:41:32;;;;;;;23.67;10.00;;;14.00;45.70;;;;;;5045522;28;20127;-63
2021/03/05 01:43:58;;;;;;;23.45;9.50;;;13.90;45.90;;;;;;5069463;28;20028;-62
2021/03/05 01:46:23;;;;;;;27.30;9.95;;;14.00;46.40;;;;;;5054498;28;20033;-62
2021/03/05 01:48:50;;;;;;;21.35;10.05;;;13.90;47.20;;;;;;5071334;28;20095;-62
2021/03/05 01:51:20;;;;;;;27.02;9.95;;;13.90;47.50;;;;;;5071237;28;20035;-62
2021/03/05 01:53:47;;;;;;;26.23;9.55;;;13.80;47.50;;;;;;5071583;28;20017;-63
2021/03/05 01:56:31;;;;;;;22.25;9.43;;;13.70;47.80;;;;;;5071834;28;20115;-63
2021/03/05 01:58:57;;;;;;;32.60;9.35;;;13.60;48.00;;;;;;5071094;28;20029;-61
2021/03/05 02:01:24;;;;;;;21.73;9.00;;;13.50;48.40;;;;;;5037642;28;20025;-63
2021/03/05 02:03:50;;;;;;;22.35;9.88;;;13.50;48.40;;;;;;5071529;28;20124;-63
2021/03/05 02:06:16;;;;;;;26.90;9.88;;;13.50;48.60;;;;;;5071711;28;20027;-63
2021/03/05 02:08:42;;;;;;;29.50;9.60;;;13.40;48.90;;;;;;5052836;28;20119;-62
2021/03/05 02:11:08;;;;;;;30.38;10.20;;;13.40;49.00;;;;;;5071714;28;20096;-62
2021/03/05 02:13:34;;;;;;;26.00;10.30;;;13.40;49.20;;;;;;5071480;28;20025;-62
2021/03/05 02:16:07;;;;;;;23.30;9.98;;;13.30;49.10;;;;;;5064798;28;20267;-62
2021/03/05 02:18:40;;;;;;;24.67;10.18;;;13.30;49.10;;;;;;5045518;28;20036;-63
2021/03/05 02:21:36;;;;;;;26.90;9.80;;;13.30;49.40;;;;;;5044473;28;20056;-64
2021/03/05 02:24:13;;;;;;;27.23;9.98;;;13.30;49.50;;;;;;5057493;28;20024;-61
2021/03/05 02:26:54;;;;;;;23.60;8.82;;;13.30;49.00;;;;;;5053527;28;20115;-62
2021/03/05 02:29:22;;;;;;;29.80;10.10;;;13.40;48.90;;;;;;5055642;28;20462;-61
2021/03/05 02:31:50;;;;;;;23.25;10.43;;;13.40;48.90;;;;;;5068364;28;20024;-62
2021/03/05 02:34:40;;;;;;;21.77;9.93;;;13.40;48.60;;;;;;5042633;28;20481;-61
2021/03/05 02:37:11;;;;;;;23.70;10.18;;;13.40;49.00;;;;;;5071893;28;20032;-62
2021/03/05 02:39:47;;;;;;;28.77;9.95;;;13.40;48.70;;;;;;5050193;28;20037;-62
2021/03/05 02:42:30;;;;;;;32.42;10.48;;;13.40;48.70;;;;;;5051250;28;20020;-63
2021/03/05 02:45:03;;;;;;;21.00;9.82;;;13.40;48.40;;;;;;5052477;28;20024;-61
2021/03/05 02:47:32;;;;;;;21.08;9.90;;;13.40;48.00;;;;;;5071732;28;20062;-62
2021/03/05 02:49:59;;;;;;;25.23;10.50;;;13.50;47.90;;;;;;5072936;28;20021;-62
2021/03/05 02:52:27;;;;;;;24.77;10.27;;;13.40;47.90;;;;;;5073355;28;20017;-61
2021/03/05 02:54:59;;;;;;;26.33;10.38;;;13.50;47.90;;;;;;5074990;28;20017;-62
2021/03/05 02:57:29;;;;;;;29.67;9.88;;;13.40;47.60;;;;;;5076342;28;20013;-61
2021/03/05 02:59:57;;;;;;;22.92;10.93;;;13.40;47.30;;;;;;5071020;28;20024;-62
2021/03/05 03:02:25;;;;;;;23.92;10.52;;;13.40;47.10;;;;;;5052960;28;20084;-61
2021/03/05 03:04:53;;;;;;;30.17;10.40;;;13.30;46.90;;;;;;5070335;28;20025;-61
2021/03/05 03:07:19;;;;;;;23.98;10.13;;;13.30;46.60;;;;;;5073741;28;20021;-61
2021/03/05 03:09:45;;;;;;;32.17;10.15;;;13.20;46.50;;;;;;5072239;28;20023;-62
2021/03/05 03:12:11;;;;;;;26.73;10.35;;;13.10;46.60;;;;;;5070542;28;20459;-62
2021/03/05 03:14:41;;;;;;;24.92;10.18;;;13.10;46.80;;;;;;5069773;28;20020;-63
2021/03/05 03:17:08;;;;;;;32.13;10.23;;;13.00;46.90;;;;;;5070193;28;20017;-61
2021/03/05 03:19:34;;;;;;;29.08;10.82;;;13.00;47.10;;;;;;5061812;28;20132;-62
2021/03/05 03:22:02;;;;;;;23.40;10.82;;;12.90;47.30;;;;;;5051678;28;20029;-62
2021/03/05 03:24:28;;;;;;;24.38;10.13;;;12.90;47.60;;;;;;5074448;28;20017;-61
2021/03/05 03:26:53;;;;;;;30.58;10.60;;;12.80;48.00;;;;;;5071960;28;20036;-64
2021/03/05 03:29:19;;;;;;;22.90;11.82;;;12.70;48.50;;;;;;5072173;28;20020;-62
2021/03/05 03:31:45;;;;;;;30.75;12.57;;;12.70;49.10;;;;;;5073201;28;20033;-62
2021/03/05 03:34:12;;;;;;;33.03;11.93;;;12.70;49.90;;;;;;5074494;28;20047;-62
2021/03/05 03:36:39;;;;;;;22.17;12.18;;;12.50;51.40;;;;;;5075409;28;20039;-61
2021/03/05 03:39:07;;;;;;;29.05;13.30;;;12.40;52.30;;;;;;5079161;28;20025;-61
2021/03/05 03:41:35;;;;;;;23.00;12.35;;;12.30;53.60;;;;;;5075019;28;20028;-62
2021/03/05 03:44:02;;;;;;;28.08;12.82;;;12.20;54.30;;;;;;5076716;28;20059;-62
2021/03/05 03:46:29;;;;;;;25.38;13.13;;;12.10;55.60;;;;;;5075862;28;20433;-61
2021/03/05 03:49:00;;;;;;;23.73;12.98;;;12.10;56.10;;;;;;5074391;28;20107;-61
2021/03/05 03:51:28;;;;;;;25.05;13.55;;;12.00;57.60;;;;;;5073211;28;20542;-61
2021/03/05 03:53:56;;;;;;;24.30;14.13;;;11.90;57.70;;;;;;5074048;28;20028;-62
2021/03/05 03:56:40;;;;;;;26.48;13.93;;;12.00;58.50;;;;;;5074476;28;20020;-62
2021/03/05 03:59:07;;;;;;;28.77;15.38;;;11.90;58.90;;;;;;5074885;28;20088;-62
2021/03/05 04:01:35;;;;;;;25.85;14.48;;;11.90;60.90;;;;;;5056659;28;20083;-62
2021/03/05 04:04:02;;;;;;;25.63;14.13;;;11.80;61.10;;;;;;5068554;28;20009;-63
2021/03/05 04:06:29;;;;;;;25.73;14.40;;;11.70;61.00;;;;;;5073780;28;20166;-62
2021/03/05 04:08:56;;;;;;;22.98;13.52;;;11.70;60.90;;;;;;5055754;28;20247;-62
2021/03/05 04:11:23;;;;;;;23.65;14.05;;;11.80;60.10;;;;;;5072941;28;20028;-62
2021/03/05 04:13:49;;;;;;;20.75;13.57;;;11.90;60.00;;;;;;5073614;28;20070;-62
2021/03/05 04:16:15;;;;;;;19.77;12.85;;;11.80;60.00;;;;;;5074539;28;20493;-62
2021/03/05 04:18:41;;;;;;;18.95;12.00;;;11.80;60.20;;;;;;5073391;28;20020;-62
2021/03/05 04:21:15;;;;;;;15.27;10.95;;;11.70;60.10;;;;;;5072688;28;20491;-62
2021/03/05 04:23:41;;;;;;;15.30;10.90;;;11.70;60.10;;;;;;5071909;28;20028;-62
2021/03/05 04:26:06;;;;;;;15.85;10.40;;;11.60;60.20;;;;;;5073528;28;20386;-62
2021/03/05 04:28:32;;;;;;;15.82;9.98;;;11.50;60.60;;;;;;5055917;28;20040;-62
2021/03/05 04:30:58;;;;;;;15.80;10.20;;;11.50;60.70;;;;;;5053825;28;20074;-62
2021/03/05 04:33:24;;;;;;;15.40;10.60;;;11.40;60.90;;;;;;5055340;28;20029;-62
2021/03/05 04:35:49;;;;;;;15.70;10.18;;;11.30;61.10;;;;;;5073273;28;20078;-63
2021/03/05 04:38:15;;;;;;;16.40;10.73;;;11.30;61.20;;;;;;5073689;28;20094;-61
2021/03/05 04:40:40;;;;;;;15.48;9.95;;;11.30;61.20;;;;;;5055247;28;20021;-61
2021/03/05 04:43:06;;;;;;;14.25;10.02;;;11.40;61.60;;;;;;5072365;28;20048;-62
2021/03/05 04:45:32;;;;;;;14.90;10.05;;;11.30;61.80;;;;;;5073676;28;20395;-61
2021/03/05 04:47:57;;;;;;;16.60;10.15;;;11.30;62.10;;;;;;5072643;28;20049;-61
2021/03/05 04:50:23;;;;;;;13.27;9.68;;;11.30;62.00;;;;;;5072753;28;20032;-62
2021/03/05 04:52:49;;;;;;;13.98;8.23;;;11.30;61.80;;;;;;5066394;28;20025;-62
2021/03/05 04:55:14;;;;;;;10.85;7.90;;;11.30;61.50;;;;;;5064211;28;20024;-62
2021/03/05 04:57:40;;;;;;;9.68;7.55;;;11.10;61.40;;;;;;5071262;28;20025;-61
2021/03/05 05:00:07;;;;;;;9.88;7.65;;;11.10;61.40;;;;;;5066819;28;20025;-62
2021/03/05 05:02:33;;;;;;;10.60;8.55;;;11.10;61.70;;;;;;5057110;28;20670;-62
2021/03/05 05:04:58;;;;;;;11.30;8.38;;;11.10;62.50;;;;;;5048140;28;20574;-61
2021/03/05 05:07:24;;;;;;;12.88;9.30;;;11.10;62.90;;;;;;5071444;28;20023;-61
2021/03/05 05:09:51;;;;;;;11.68;8.88;;;11.20;62.90;;;;;;5068545;28;20039;-61
2021/03/05 05:12:18;;;;;;;13.70;9.38;;;11.10;63.20;;;;;;5069572;28;20032;-61
2021/03/05 05:14:44;;;;;;;12.15;9.38;;;11.20;63.30;;;;;;5048652;28;20052;-62
2021/03/05 05:17:09;;;;;;;14.93;9.88;;;11.10;64.00;;;;;;5068875;28;20478;-62
2021/03/05 05:19:35;;;;;;;12.77;9.82;;;11.00;64.40;;;;;;5070791;28;20588;-62
2021/03/05 05:22:01;;;;;;;11.55;10.07;;;11.10;64.50;;;;;;5072287;28;20099;-62
2021/03/05 05:24:27;;;;;;;15.05;10.95;;;11.10;65.00;;;;;;5072343;28;20143;-61
2021/03/05 05:26:53;;;;;;;15.15;11.23;;;11.00;66.40;;;;;;5072217;28;20375;-62
2021/03/05 05:29:18;;;;;;;14.70;10.68;;;10.90;66.60;;;;;;5072236;28;20028;-62
2021/03/05 05:31:44;;;;;;;15.07;11.18;;;10.90;66.80;;;;;;5071950;28;20021;-62
2021/03/05 05:34:10;;;;;;;15.13;11.30;;;10.90;67.00;;;;;;5072666;28;20021;-62
2021/03/05 05:36:35;;;;;;;14.00;10.82;;;10.90;66.80;;;;;;5072276;28;20039;-63
2021/03/05 05:39:01;;;;;;;13.73;11.18;;;10.90;67.40;;;;;;5054286;28;20375;-61
2021/03/05 05:41:27;;;;;;;13.60;11.48;;;10.90;67.80;;;;;;5070864;28;20055;-62
2021/03/05 05:43:52;;;;;;;16.60;11.52;;;10.90;67.90;;;;;;5070917;28;20024;-61
2021/03/05 05:46:21;;;;;;;20.35;12.35;;;10.90;67.60;;;;;;5054062;28;20113;-62
2021/03/05 05:48:48;;;;;;;16.63;11.40;;;10.90;68.10;;;;;;5053904;28;20033;-63
2021/03/05 05:51:20;;;;;;;17.35;11.52;;;10.90;68.30;;;;;;5070004;28;20078;-63
2021/03/05 05:53:47;;;;;;;18.90;12.20;;;10.90;68.50;;;;;;5052794;28;20017;-62
2021/03/05 05:56:19;;;;;;;17.52;12.95;;;10.90;69.10;;;;;;5053908;28;20087;-62
2021/03/05 05:58:46;;;;;;;17.90;12.75;;;10.80;70.00;;;;;;5071183;28;20044;-63
2021/03/05 06:01:12;;;;;;;16.92;12.52;;;10.80;70.00;;;;;;5071484;28;20032;-63
2021/03/05 06:03:39;;;;;;;17.92;12.80;;;10.80;70.10;;;;;;5052151;28;20036;-62
2021/03/05 06:06:05;;;;;;;19.17;12.57;;;11.00;69.60;;;;;;5052899;28;20036;-63
2021/03/05 06:08:31;;;;;;;17.48;13.20;;;11.10;69.10;;;;;;5052049;28;20040;-62
2021/03/05 06:10:57;;;;;;;17.05;13.25;;;11.30;68.60;;;;;;5069258;28;20028;-62
2021/03/05 06:13:28;;;;;;;22.40;13.95;;;11.40;68.30;;;;;;5054090;28;20481;-62
2021/03/05 06:16:18;;;;;;;19.17;14.13;;;11.50;67.90;;;;;;5071511;28;20095;-62
2021/03/05 06:18:45;;;;;;;19.88;14.07;;;11.60;68.10;;;;;;5071515;28;20070;-61
2021/03/05 06:21:11;;;;;;;19.42;13.85;;;11.60;67.80;;;;;;5071156;28;20029;-61
2021/03/05 06:23:59;;;;;;;17.30;13.23;;;11.60;67.60;;;;;;5053050;28;20089;-61
2021/03/05 06:26:26;;;;;;;16.85;13.43;;;11.70;67.70;;;;;;5071043;28;20562;-64
2021/03/05 06:29:05;;;;;;;18.95;14.15;;;11.60;67.20;;;;;;5051878;28;20123;-64
2021/03/05 06:31:32;;;;;;;23.58;14.05;;;11.60;67.30;;;;;;5068306;28;20054;-62
2021/03/05 06:33:59;;;;;;;21.05;14.05;;;11.60;67.50;;;;;;5069872;28;20021;-62
2021/03/05 06:36:25;;;;;;;22.60;15.00;;;11.70;67.60;;;;;;5069818;28;20028;-61
2021/03/05 06:38:51;;;;;;;19.13;14.38;;;11.70;67.60;;;;;;5051919;28;20033;-61
2021/03/05 06:41:21;;;;;;;18.88;13.98;;;11.70;67.80;;;;;;5070194;28;20032;-62
2021/03/05 06:43:55;;;;;;;20.80;13.57;;;11.70;67.20;;;;;;5067814;28;20052;-64
2021/03/05 06:46:28;;;;;;;20.67;13.90;;;11.60;66.20;;;;;;5069648;28;20111;-62
2021/03/05 06:48:55;;;;;;;17.45;13.30;;;11.60;66.40;;;;;;5068517;28;20044;-62
2021/03/05 06:51:22;;;;;;;19.80;14.25;;;11.50;67.10;;;;;;5069361;28;20501;-61
2021/03/05 06:53:48;;;;;;;16.85;12.93;;;11.60;66.80;;;;;;5069062;28;20029;-61
2021/03/05 06:56:30;;;;;;;19.05;13.68;;;11.50;66.10;;;;;;5071936;28;20062;-63
2021/03/05 06:59:03;;;;;;;22.73;14.82;;;11.50;66.50;;;;;;5072107;28;20020;-62
2021/03/05 07:01:29;;;;;;;27.00;18.90;;;11.50;66.40;;;;;;5074336;28;20028;-62
2021/03/05 07:04:10;;;;;;;29.40;18.42;;;11.50;66.40;;;;;;5074148;28;20056;-62
2021/03/05 07:06:36;;;;;;;30.30;19.33;;;11.40;66.10;;;;;;5062921;28;20086;-61
2021/03/05 07:09:04;;;;;;;28.52;20.02;;;11.30;66.60;;;;;;5070680;28;20048;-62
2021/03/05 07:11:41;;;;;;;28.88;20.92;;;11.20;66.30;;;;;;5073075;28;20112;-62
2021/03/05 07:14:11;;;;;;;32.85;21.63;;;11.10;66.10;;;;;;5071594;28;20032;-62
2021/03/05 07:16:39;;;;;;;31.55;23.45;;;11.10;66.50;;;;;;5072194;28;20044;-63
2021/03/05 07:19:04;;;;;;;34.55;23.17;;;11.00;66.30;;;;;;5071978;28;20030;-62
2021/03/05 07:21:33;;;;;;;34.42;24.83;;;10.90;66.40;;;;;;5072931;28;20356;-61
2021/03/05 07:24:03;;;;;;;35.40;25.80;;;10.70;65.90;;;;;;5070034;28;20021;-62
2021/03/05 07:26:32;;;;;;;36.63;26.55;;;10.50;66.80;;;;;;5074438;28;20063;-62
2021/03/05 07:28:58;;;;;;;32.63;24.85;;;10.40;67.20;;;;;;5068943;28;20165;-62
2021/03/05 07:31:25;;;;;;;29.90;22.23;;;10.40;67.20;;;;;;5074543;28;20047;-62
2021/03/05 07:33:56;;;;;;;19.85;15.23;;;10.40;67.90;;;;;;5072631;28;20028;-62
2021/03/05 07:36:27;;;;;;;18.25;12.85;;;10.40;66.50;;;;;;5073403;28;20035;-61
2021/03/05 07:38:57;;;;;;;16.00;11.25;;;10.30;66.20;;;;;;5074496;28;20020;-62
2021/03/05 07:41:24;;;;;;;16.77;10.95;;;10.30;66.40;;;;;;5074235;28;20099;-62
2021/03/05 07:43:50;;;;;;;12.65;8.55;;;10.20;66.30;;;;;;5073253;28;20031;-62
2021/03/05 07:46:16;;;;;;;13.00;7.30;;;10.20;65.80;;;;;;5074290;28;20033;-63
2021/03/05 07:48:48;;;;;;;9.32;7.07;;;10.20;65.30;;;;;;5074556;28;20052;-63
2021/03/05 07:51:14;;;;;;;8.90;7.03;;;10.10;64.80;;;;;;5073641;28;20085;-61
2021/03/05 07:53:54;;;;;;;8.35;7.00;;;10.00;64.30;;;;;;5074118;28;20037;-63
2021/03/05 07:56:38;;;;;;;8.27;6.22;;;9.90;65.30;;;;;;5071729;28;20028;-62
2021/03/05 07:59:04;;;;;;;9.70;6.78;;;9.70;64.90;;;;;;5073227;28;20021;-61
2021/03/05 08:01:51;;;;;;;6.47;5.47;;;9.70;65.00;;;;;;5074318;28;20090;-62
2021/03/05 08:04:17;;;;;;;8.10;4.97;;;9.60;64.90;;;;;;5074516;28;20502;-61
2021/03/05 08:06:43;;;;;;;10.63;5.57;;;9.60;65.20;;;;;;5073419;28;20078;-61
2021/03/05 08:09:15;;;;;;;6.85;4.45;;;9.60;64.90;;;;;;5073253;28;20060;-66
2021/03/05 08:11:41;;;;;;;5.60;4.40;;;9.60;64.40;;;;;;5073748;28;20035;-61
2021/03/05 08:14:18;;;;;;;5.65;3.78;;;9.60;64.50;;;;;;5073443;28;20033;-61
2021/03/05 08:16:45;;;;;;;5.63;4.80;;;9.70;64.30;;;;;;5070899;28;20059;-63
2021/03/05 08:19:15;;;;;;;5.18;3.80;;;9.60;64.30;;;;;;5071328;28;20074;-62
2021/03/05 08:21:50;;;;;;;5.40;4.13;;;9.60;64.80;;;;;;5068309;28;20066;-62
2021/03/05 08:24:27;;;;;;;5.72;3.33;;;9.60;64.70;;;;;;5069517;28;20021;-61
2021/03/05 08:27:11;;;;;;;5.40;3.30;;;9.70;64.00;;;;;;5061859;28;20037;-64
2021/03/05 08:30:03;;;;;;;6.20;3.40;;;9.70;63.20;;;;;;5071332;28;20483;-63
2021/03/05 08:32:34;;;;;;;6.78;3.40;;;9.60;63.30;;;;;;5073359;28;20044;-58
2021/03/05 08:35:06;;;;;;;3.97;2.70;;;9.50;64.20;;;;;;5072852;28;20074;-60
2021/03/05 08:37:42;;;;;;;3.65;2.90;;;9.50;64.00;;;;;;5072647;28;20036;-61
2021/03/05 08:40:28;;;;;;;3.83;2.45;;;9.40;63.30;;;;;;5073008;28;20123;-61
2021/03/05 08:42:57;;;;;;;4.05;2.70;;;9.40;63.50;;;;;;5072491;28;20036;-61
2021/03/05 08:45:30;;;;;;;6.50;2.92;;;9.30;64.90;;;;;;5073300;28;20044;-61
2021/03/05 08:48:02;;;;;;;7.68;2.60;;;9.40;64.70;;;;;;5070569;28;20127;-62
2021/03/05 08:50:33;;;;;;;4.70;2.38;;;9.60;64.00;;;;;;5073024;28;20041;-61
2021/03/05 08:53:04;;;;;;;4.20;2.55;;;9.80;63.10;;;;;;5072632;28;20029;-62
2021/03/05 08:55:31;;;;;;;4.95;2.70;;;9.80;62.60;;;;;;5071084;28;20478;-60
2021/03/05 08:57:58;;;;;;;6.00;3.30;;;9.90;63.00;;;;;;5071058;28;20482;-61
2021/03/05 09:00:31;;;;;;;4.63;2.92;;;9.90;62.70;;;;;;5072739;28;20021;-61
2021/03/05 09:03:05;;;;;;;5.45;3.40;;;9.90;62.50;;;;;;5071639;28;20486;-61
2021/03/05 09:05:33;;;;;;;3.80;2.92;;;9.90;62.50;;;;;;5071767;28;20072;-59
2021/03/05 09:07:59;;;;;;;4.70;2.85;;;9.90;62.50;;;;;;5071178;28;20023;-60
2021/03/05 09:10:37;;;;;;;4.43;2.60;;;10.30;62.10;;;;;;5071296;28;20028;-61
2021/03/05 09:13:03;;;;;;;3.75;2.72;;;10.50;61.40;;;;;;5071432;28;20090;-60
2021/03/05 09:15:48;;;;;;;4.65;2.55;;;10.60;60.00;;;;;;5056494;28;20033;-61
2021/03/05 09:18:18;;;;;;;4.53;2.55;;;10.50;60.50;;;;;;5069722;28;20035;-60
2021/03/05 09:20:50;;;;;;;3.15;2.30;;;10.60;60.40;;;;;;5071746;28;20032;-62
2021/03/05 09:23:34;;;;;;;4.03;2.70;;;10.60;60.50;;;;;;5065887;28;20028;-62
2021/03/05 09:26:05;;;;;;;;;;;10.70;59.50;;;;;;5063581;28;20040;-62
2021/03/05 09:28:42;;;;;;;3.85;2.00;;;10.70;59.70;;;;;;5072374;28;20290;-61
2021/03/05 09:31:10;;;;;;;4.35;2.00;;;10.60;59.20;;;;;;5057460;28;20494;-60
2021/03/05 09:33:41;;;;;;;2.72;1.83;;;10.40;59.10;;;;;;5069541;28;20032;-61
2021/03/05 09:36:26;;;;;;;2.70;1.83;;;10.30;59.90;;;;;;5057678;28;20035;-61
2021/03/05 09:39:02;;;;;;;5.05;3.20;;;10.30;60.30;;;;;;5068265;28;20032;-60
2021/03/05 09:41:33;;;;;;;4.20;2.30;;;10.40;60.10;;;;;;5061528;28;20217;-61
2021/03/05 09:44:10;;;;;;;3.20;2.22;;;10.20;59.40;;;;;;5071065;28;20021;-60
2021/03/05 09:46:41;;;;;;;2.90;2.20;;;10.10;60.30;;;;;;5062826;28;20058;-52
2021/03/05 09:49:29;;;;;;;4.45;3.10;;;10.10;60.90;;;;;;5060077;28;20748;-61
2021/03/05 09:51:55;;;;;;;4.60;2.30;;;10.20;60.00;;;;;;5070629;28;20162;-59
2021/03/05 09:54:34;;;;;;;3.78;2.28;;;10.20;60.40;;;;;;5063255;28;20103;-56
2021/03/05 09:56:59;;;;;;;6.82;2.45;;;10.00;60.30;;;;;;5055032;28;20071;-58
2021/03/05 09:59:40;;;;;;;4.60;2.60;;;9.90;60.30;;;;;;5053737;28;20470;-58
2021/03/05 10:02:06;;;;;;;5.32;2.25;;;9.80;60.50;;;;;;5071044;28;20036;-60
2021/03/05 10:04:41;;;;;;;5.30;3.08;;;9.80;60.50;;;;;;5071908;28;20127;-58
2021/03/05 10:07:07;;;;;;;4.28;2.40;;;9.70;61.00;;;;;;5071395;28;20467;-59
2021/03/05 10:09:32;;;;;;;8.38;2.80;;;9.60;61.40;;;;;;5071851;28;20036;-59
2021/03/05 10:11:58;;;;;;;7.15;3.38;;;9.60;61.50;;;;;;5069502;28;20116;-57
2021/03/05 10:14:26;;;;;;;10.07;4.32;;;9.60;61.90;;;;;;5071380;28;20031;-58
2021/03/05 10:16:52;;;;;;;7.55;4.97;;;9.70;61.20;;;;;;5070526;28;20493;-57
2021/03/05 10:19:24;;;;;;;4.10;2.70;;;9.70;60.60;;;;;;5071278;28;20464;-59
2021/03/05 10:21:52;;;;;;;4.32;2.63;;;9.60;60.80;;;;;;5057355;28;20036;-57
2021/03/05 10:24:28;;;;;;;3.55;2.70;;;9.50;60.70;;;;;;5061516;28;20016;-58
2021/03/05 10:29:40;;;;;;;4.30;3.20;;;9.50;60.80;;;;;;5071806;28;20035;-56
2021/03/05 10:32:26;;;;;;;3.72;2.17;;;9.50;60.70;;;;;;5070350;28;20494;-58
2021/03/05 10:34:54;;;;;;;3.42;2.53;;;9.50;60.50;;;;;;5071529;28;20025;-61
2021/03/05 10:37:20;;;;;;;6.78;3.03;;;9.50;60.70;;;;;;5052709;28;20032;-59
2021/03/05 10:39:48;;;;;;;4.88;2.80;;;9.60;60.10;;;;;;5054155;28;20037;-61
2021/03/05 10:42:15;;;;;;;4.53;2.92;;;9.50;59.50;;;;;;5071285;28;20451;-58
2021/03/05 10:44:43;;;;;;;5.63;3.40;;;9.50;60.60;;;;;;5054024;28;20021;-60
2021/03/05 10:47:11;;;;;;;5.80;3.97;;;9.60;60.10;;;;;;5069752;28;20105;-60
2021/03/05 10:49:38;;;;;;;7.47;4.78;;;9.80;59.70;;;;;;5033972;28;20037;-58
2021/03/05 10:52:05;;;;;;;10.85;5.95;;;9.80;59.10;;;;;;5033535;28;20033;-60
2021/03/05 10:54:31;;;;;;;16.55;7.55;;;9.80;59.80;;;;;;5033399;28;20491;-59
2021/03/05 10:56:57;;;;;;;16.20;8.10;;;9.90;59.40;;;;;;5048899;28;20037;-59
2021/03/05 10:59:24;;;;;;;17.92;6.70;;;10.10;59.50;;;;;;5051379;28;20495;-59
2021/03/05 11:01:55;;;;;;;15.43;7.00;;;10.10;59.40;;;;;;5033193;28;20028;-59
2021/03/05 11:04:23;;;;;;;12.95;6.05;;;10.40;59.50;;;;;;5050961;28;20025;-59
2021/03/05 11:06:49;;;;;;;7.45;4.13;;;10.70;58.70;;;;;;5050771;28;20060;-59
2021/03/05 11:09:18;;;;;;;6.35;3.65;;;11.00;57.70;;;;;;5050540;28;20467;-58
2021/03/05 11:11:45;;;;;;;4.93;3.20;;;11.10;57.70;;;;;;5051258;28;20476;-59
2021/03/05 11:14:12;;;;;;;5.00;2.60;;;11.30;57.70;;;;;;5050443;28;20052;-59
2021/03/05 11:16:38;;;;;;;3.60;2.75;;;11.50;57.20;;;;;;5033480;28;20495;-60
2021/03/05 11:19:04;;;;;;;4.85;2.88;;;11.70;56.60;;;;;;5049906;28;20373;-61
2021/03/05 11:21:30;;;;;;;4.63;3.00;;;11.80;56.30;;;;;;5032543;28;20033;-58
2021/03/05 11:23:57;;;;;;;4.88;3.35;;;12.00;55.50;;;;;;5050165;28;20021;-57
2021/03/05 11:26:23;;;;;;;4.90;4.30;;;12.10;55.10;;;;;;5043229;28;20033;-58
2021/03/05 11:28:50;;;;;;;5.68;4.13;;;12.00;54.10;;;;;;5045832;28;20112;-60
2021/03/05 11:31:16;;;;;;;5.03;4.30;;;11.90;53.90;;;;;;5043274;28;20021;-58
2021/03/05 11:33:44;;;;;;;5.43;4.78;;;11.90;54.10;;;;;;5047146;28;20018;-60
2021/03/05 11:36:11;;;;;;;6.22;4.75;;;11.90;54.40;;;;;;5029751;28;20060;-59
2021/03/05 11:38:38;;;;;;;6.22;4.60;;;12.00;54.00;;;;;;5049844;28;20463;-60
2021/03/05 11:41:03;;;;;;;6.30;5.07;;;12.10;54.50;;;;;;5031714;28;20128;-57
2021/03/05 11:43:29;;;;;;;6.38;5.25;;;12.10;53.80;;;;;;5051761;28;20104;-58
2021/03/05 11:45:55;;;;;;;7.10;4.90;;;12.20;54.50;;;;;;5050749;28;20044;-60
2021/03/05 11:48:21;;;;;;;7.32;5.68;;;12.30;53.90;;;;;;5050760;28;20052;-61
2021/03/05 11:50:47;;;;;;;6.50;4.95;;;12.30;53.50;;;;;;5061247;28;20032;-60
2021/03/05 11:53:13;;;;;;;8.73;6.35;;;12.20;53.90;;;;;;5060950;28;20107;-61
2021/03/05 11:55:38;;;;;;;7.35;5.50;;;12.20;53.90;;;;;;5061966;28;20367;-61
2021/03/05 11:58:04;;;;;;;6.70;5.43;;;12.30;54.20;;;;;;5070996;28;20020;-60
2021/03/05 12:00:30;;;;;;;9.05;7.00;;;12.20;53.60;;;;;;5068312;28;20033;-62
2021/03/05 12:02:56;;;;;;;8.38;6.13;;;12.10;53.60;;;;;;5068703;28;20046;-62
2021/03/05 12:05:24;;;;;;;10.93;6.97;;;12.10;54.60;;;;;;5055063;28;20498;-60
2021/03/05 12:07:50;;;;;;;7.35;6.00;;;12.10;53.70;;;;;;5071910;28;20025;-60
2021/03/05 12:10:16;;;;;;;6.50;5.80;;;12.00;53.50;;;;;;5071871;28;20794;-60
2021/03/05 12:12:42;;;;;;;8.38;5.78;;;11.80;53.30;;;;;;5071753;28;20027;-60
2021/03/05 12:15:08;;;;;;;9.63;7.00;;;11.70;54.50;;;;;;5062515;28;20162;-59
2021/03/05 12:17:34;;;;;;;9.25;6.93;;;11.60;53.90;;;;;;5061904;28;20033;-58
2021/03/05 12:20:00;;;;;;;8.70;6.50;;;11.60;54.90;;;;;;5052465;28;20028;-61
2021/03/05 12:22:25;;;;;;;16.48;6.40;;;11.70;55.60;;;;;;5071756;28;20021;-61
2021/03/05 12:24:51;;;;;;;8.00;5.68;;;11.90;54.30;;;;;;5052999;28;20020;-58
2021/03/05 12:27:17;;;;;;;8.25;6.40;;;11.70;53.80;;;;;;5064842;28;20035;-59
2021/03/05 12:29:43;;;;;;;8.43;6.25;;;11.70;54.40;;;;;;5069443;28;20091;-59
2021/03/05 12:32:09;;;;;;;7.85;5.88;;;11.40;54.20;;;;;;5054552;28;20055;-60
2021/03/05 12:34:34;;;;;;;8.52;5.95;;;11.20;55.60;;;;;;5063545;28;20479;-61
2021/03/05 12:37:01;;;;;;;7.93;5.78;;;11.00;55.30;;;;;;5050858;28;20031;-61
2021/03/05 12:39:28;;;;;;;8.45;6.28;;;11.00;55.30;;;;;;5050871;28;20075;-58
2021/03/05 12:41:53;;;;;;;9.05;6.85;;;11.20;56.30;;;;;;5053434;28;20050;-60
2021/03/05 12:44:19;;;;;;;10.55;7.78;;;11.30;56.20;;;;;;5052446;28;20402;-60
2021/03/05 12:46:45;;;;;;;11.70;9.38;;;11.20;55.50;;;;;;5071073;28;20079;-59
2021/03/05 12:49:11;;;;;;;11.00;7.65;;;10.90;56.30;;;;;;5049724;28;20105;-58